createdAt,value
2019-05-07T00:01:42.912Z,10.33
2019-05-07T00:06:44.104Z,15.17
2019-05-07T00:11:45.199Z,9.90
2019-05-07T00:16:46.316Z,11.63
2019-05-07T00:21:47.412Z,12.30
2019-05-07T00:26:48.512Z,13.40
2019-05-07T00:31:51.896Z,9.53
2019-05-07T00:36:54.533Z,9.90
2019-05-07T00:41:57.546Z,10.10
2019-05-07T00:46:58.643Z,9.73
2019-05-07T00:51:59.738Z,14.20
2019-05-07T00:57:02.955Z,11.13
2019-05-07T01:02:04.800Z,11.73
2019-05-07T01:07:05.994Z,12.20
2019-05-07T01:12:07.187Z,12.77
2019-05-07T01:17:08.329Z,12.30
2019-05-07T01:22:09.419Z,11.07
2019-05-07T01:27:12.794Z,13.47
2019-05-07T01:32:22.179Z,10.27
2019-05-07T01:37:23.503Z,14.17
2019-05-07T01:42:24.582Z,10.60
2019-05-07T01:47:25.687Z,15.43
2019-05-07T01:52:26.775Z,11.83
2019-05-07T01:57:27.865Z,14.83
2019-05-07T02:02:33.643Z,13.43
2019-05-07T02:07:36.635Z,15.17
2019-05-07T02:12:38.731Z,13.77
2019-05-07T02:17:39.851Z,12.50
2019-05-07T02:22:42.782Z,13.97
2019-05-07T02:27:43.943Z,15.87
2019-05-07T02:32:45.033Z,12.07
2019-05-07T02:37:52.596Z,11.23
2019-05-07T02:42:54.034Z,13.40
2019-05-07T02:47:54.310Z,14.83
2019-05-07T02:53:03.919Z,12.73
2019-05-07T02:58:03.904Z,15.67
2019-05-07T03:03:05.255Z,12.53
2019-05-07T03:08:06.567Z,12.93
2019-05-07T03:13:07.782Z,13.80
2019-05-07T03:18:09.094Z,12.57
2019-05-07T03:23:13.383Z,11.60
2019-05-07T03:28:14.687Z,15.83
2019-05-07T03:33:17.952Z,10.73
2019-05-07T03:38:19.125Z,17.00
2019-05-07T03:43:22.862Z,14.70
2019-05-07T03:48:25.432Z,13.17
2019-05-07T03:53:26.537Z,13.83
2019-05-07T03:58:27.648Z,17.70
2019-05-07T04:03:29.071Z,15.57
2019-05-07T04:08:33.073Z,14.70
2019-05-07T04:13:33.862Z,12.10
2019-05-07T04:18:35.162Z,14.57
2019-05-07T04:23:36.274Z,15.43
2019-05-07T04:28:55.850Z,20.47
2019-05-07T04:33:58.850Z,16.80
2019-05-07T04:39:02.689Z,19.63
2019-05-07T04:44:03.917Z,14.83
2019-05-07T04:49:05.363Z,15.83
2019-05-07T04:54:06.446Z,14.77
2019-05-07T04:59:07.541Z,14.63
2019-05-07T05:04:24.347Z,10.23
2019-05-07T05:09:12.556Z,12.50
2019-05-07T05:14:13.960Z,12.00
2019-05-07T05:19:15.083Z,13.47
2019-05-07T05:24:22.192Z,11.87
2019-05-07T05:29:23.480Z,12.17
2019-05-07T05:34:24.575Z,13.47
2019-05-07T05:39:25.692Z,11.63
2019-05-07T05:44:33.820Z,12.57
2019-05-07T05:49:34.911Z,11.50
2019-05-07T05:54:49.735Z,10.53
2019-05-07T05:59:55.471Z,8.90
2019-05-07T06:05:14.426Z,26.57
2019-05-07T06:10:17.412Z,29.40
2019-05-07T06:15:23.431Z,41.77
2019-05-07T06:20:29.155Z,28.20
2019-05-07T06:25:33.206Z,24.17
2019-05-07T06:30:33.839Z,16.13
2019-05-07T06:35:35.060Z,24.50
2019-05-07T06:40:46.904Z,19.87
2019-05-07T06:45:51.921Z,18.90
2019-05-07T06:50:55.671Z,17.37
2019-05-07T06:55:58.166Z,24.27
2019-05-07T07:01:07.217Z,12.07
2019-05-07T07:06:16.289Z,14.10
2019-05-07T07:11:19.291Z,13.30
2019-05-07T07:16:22.456Z,17.70
2019-05-07T07:21:23.488Z,17.30
2019-05-07T07:26:24.579Z,12.23
2019-05-07T07:31:31.866Z,12.53
2019-05-07T07:36:42.352Z,12.43
2019-05-07T07:41:45.450Z,13.47
2019-05-07T07:46:46.552Z,13.63
2019-05-07T07:51:47.648Z,10.33
2019-05-07T07:56:53.823Z,10.73
2019-05-07T08:01:58.562Z,12.70
2019-05-07T08:07:03.003Z,13.57
2019-05-07T08:12:04.721Z,15.07
2019-05-07T08:17:07.984Z,11.50
2019-05-07T08:22:09.181Z,6.67
2019-05-07T08:27:14.740Z,4.87
2019-05-07T08:32:27.720Z,6.43
2019-05-07T08:37:28.957Z,11.80
2019-05-07T08:42:32.055Z,11.17
2019-05-07T08:47:42.524Z,6.10
2019-05-07T08:52:43.743Z,11.43
2019-05-07T08:57:45.970Z,9.03
2019-05-07T09:02:47.341Z,7.30
2019-05-07T09:07:48.436Z,9.00
2019-05-07T09:12:49.524Z,10.73
2019-05-07T09:17:52.545Z,6.00
2019-05-07T09:22:53.839Z,6.83
2019-05-07T09:27:55.252Z,8.53
2019-05-07T09:32:58.358Z,7.07
2019-05-07T09:37:59.447Z,5.53
2019-05-07T09:43:02.366Z,4.73
2019-05-07T09:48:03.756Z,6.27
2019-05-07T09:53:05.063Z,4.20
2019-05-07T09:58:06.152Z,5.70
2019-05-07T10:03:07.367Z,4.47
2019-05-07T10:08:08.676Z,3.83
2019-05-07T10:13:17.692Z,5.43
2019-05-07T10:18:19.204Z,4.83
2019-05-07T10:23:22.773Z,5.00
2019-05-07T10:28:23.613Z,6.23
2019-05-07T10:33:24.791Z,4.77
2019-05-07T10:38:25.868Z,5.20
2019-05-07T10:43:27.071Z,5.40
2019-05-07T10:48:42.017Z,5.10
2019-05-07T10:53:43.421Z,6.93
2019-05-07T10:58:44.619Z,4.87
2019-05-07T11:03:45.735Z,7.27
2019-05-07T11:08:46.844Z,5.97
2019-05-07T11:13:47.946Z,6.33
2019-05-07T11:18:51.809Z,9.37
2019-05-07T11:23:53.078Z,5.90
2019-05-07T11:28:54.187Z,6.10
2019-05-07T11:33:55.401Z,8.30
2019-05-07T11:38:56.501Z,5.73
2019-05-07T11:44:01.647Z,5.23
2019-05-07T11:49:16.692Z,6.70
2019-05-07T11:54:17.871Z,4.97
2019-05-07T11:59:18.977Z,4.00
2019-05-07T12:04:20.101Z,4.67
2019-05-07T12:09:21.781Z,5.33
2019-05-07T12:14:30.914Z,4.03
2019-05-07T12:19:26.116Z,5.23
2019-05-07T12:24:27.230Z,4.77
2019-05-07T12:29:28.327Z,4.00
2019-05-07T12:34:31.895Z,5.83
2019-05-07T12:39:33.148Z,6.73
2019-05-07T12:44:34.254Z,4.77
2019-05-07T12:49:35.359Z,4.90
2019-05-07T12:54:47.337Z,7.40
2019-05-07T12:59:49.701Z,4.97
2019-05-07T13:04:52.138Z,4.00
2019-05-07T13:09:53.876Z,6.53
2019-05-07T13:14:54.979Z,6.70
2019-05-07T13:19:56.109Z,6.63
2019-05-07T13:24:57.220Z,6.57
2019-05-07T13:29:58.336Z,6.40
2019-05-07T13:35:02.713Z,5.83
2019-05-07T13:40:06.786Z,5.35
2019-05-07T13:45:15.994Z,5.77
2019-05-07T13:50:17.298Z,7.87
2019-05-07T13:55:18.586Z,5.70
2019-05-07T14:00:32.453Z,5.33
2019-05-07T14:05:33.749Z,9.20
2019-05-07T14:10:35.089Z,5.83
2019-05-07T14:15:36.184Z,4.87
2019-05-07T14:20:37.286Z,5.90
2019-05-07T14:25:38.402Z,5.87
2019-05-07T14:30:41.966Z,6.47
2019-05-07T14:35:44.392Z,3.97
2019-05-07T14:40:45.612Z,5.97
2019-05-07T14:45:46.908Z,7.20
2019-05-07T14:50:48.216Z,5.87
2019-05-07T14:55:49.423Z,6.93
2019-05-07T15:00:51.829Z,5.77
2019-05-07T15:05:53.157Z,8.57
2019-05-07T15:10:54.477Z,6.57
2019-05-07T15:15:55.635Z,7.50
2019-05-07T15:20:56.756Z,6.57
2019-05-07T15:25:57.952Z,6.63
2019-05-07T15:31:02.813Z,4.27
2019-05-07T15:36:06.494Z,5.07
2019-05-07T15:41:07.390Z,4.73
2019-05-07T15:46:08.697Z,7.37
2019-05-07T15:51:11.752Z,6.43
2019-05-07T15:56:12.895Z,4.53
2019-05-07T16:01:14.113Z,6.00
2019-05-07T16:06:15.247Z,4.40
2019-05-07T16:11:16.456Z,3.93
2019-05-07T16:16:17.565Z,5.87
2019-05-07T16:21:18.727Z,7.63
2019-05-07T16:26:21.896Z,6.23
2019-05-07T16:31:24.730Z,8.07
2019-05-07T16:36:25.912Z,5.77
2019-05-07T16:41:27.040Z,5.47
2019-05-07T16:46:28.151Z,5.37
2019-05-07T16:51:29.266Z,5.40
2019-05-07T16:56:30.383Z,8.03
2019-05-07T17:01:32.440Z,6.13
2019-05-07T17:06:33.823Z,7.20
2019-05-07T17:11:34.968Z,7.67
2019-05-07T17:16:36.289Z,4.63
2019-05-07T17:21:37.417Z,6.40
2019-05-07T17:26:38.694Z,12.57
2019-05-07T17:31:39.798Z,21.37
2019-05-07T17:36:42.328Z,17.50
2019-05-07T17:41:43.685Z,14.40
2019-05-07T17:46:46.192Z,7.00
2019-05-07T17:51:47.627Z,7.13
2019-05-07T17:56:48.741Z,6.90
2019-05-07T18:01:54.938Z,5.93
2019-05-07T18:06:56.129Z,7.30
2019-05-07T18:11:57.566Z,9.07
2019-05-07T18:17:02.107Z,6.70
2019-05-07T18:22:03.916Z,8.13
2019-05-07T18:27:07.139Z,7.67
2019-05-07T18:32:08.369Z,7.13
2019-05-07T18:37:09.795Z,6.63
2019-05-07T18:42:12.703Z,6.30
2019-05-07T18:47:14.174Z,7.00
2019-05-07T18:52:15.290Z,8.53
2019-05-07T18:57:16.438Z,10.50
2019-05-07T19:02:17.783Z,9.13
2019-05-07T19:07:19.025Z,8.23
2019-05-07T19:12:22.422Z,11.50
2019-05-07T19:17:25.644Z,8.60
2019-05-07T19:22:27.036Z,8.73
2019-05-07T19:27:28.365Z,10.47
2019-05-07T19:32:32.113Z,9.93
2019-05-07T19:37:32.930Z,11.70
2019-05-07T19:42:34.048Z,12.50
2019-05-07T19:47:35.202Z,10.00
2019-05-07T19:52:36.524Z,7.53
2019-05-07T19:57:45.385Z,8.07
2019-05-07T20:02:48.463Z,9.57
2019-05-07T20:07:53.326Z,10.13
2019-05-07T20:12:53.080Z,14.47
2019-05-07T20:17:54.282Z,10.90
2019-05-07T20:22:55.445Z,8.37
2019-05-07T20:28:02.188Z,8.67
2019-05-07T20:33:03.701Z,9.67
2019-05-07T20:38:05.058Z,8.00
2019-05-07T20:43:06.206Z,10.57
2019-05-07T20:48:07.338Z,5.93
2019-05-07T20:53:08.450Z,7.53
2019-05-07T20:58:09.658Z,6.93
2019-05-07T21:03:20.080Z,11.53
2019-05-07T21:08:22.746Z,6.97
2019-05-07T21:13:30.810Z,7.30
2019-05-07T21:18:27.511Z,8.10
2019-05-07T21:23:28.726Z,8.90
2019-05-07T21:28:32.163Z,9.57
2019-05-07T21:33:32.988Z,9.27
2019-05-07T21:38:34.085Z,8.40
2019-05-07T21:43:35.355Z,10.67
2019-05-07T21:48:36.575Z,8.53
2019-05-07T21:53:39.584Z,9.00
2019-05-07T21:58:45.658Z,8.47
2019-05-07T22:03:48.683Z,8.77
2019-05-07T22:08:54.425Z,9.73
2019-05-07T22:13:55.428Z,9.00
2019-05-07T22:18:56.555Z,10.37
2019-05-07T22:23:57.674Z,9.87
2019-05-07T22:28:58.774Z,14.57
2019-05-07T22:34:07.514Z,12.37
2019-05-07T22:39:08.710Z,9.93
2019-05-07T22:44:11.833Z,9.90
2019-05-07T22:49:13.044Z,10.93
2019-05-07T22:54:14.149Z,10.07
2019-05-07T22:59:15.231Z,11.03
2019-05-07T23:04:16.351Z,11.93
2019-05-07T23:09:17.450Z,10.13
2019-05-07T23:14:18.567Z,11.30
2019-05-07T23:19:21.836Z,14.20
2019-05-07T23:24:24.900Z,11.53
2019-05-07T23:29:25.702Z,9.70
2019-05-07T23:34:26.788Z,10.97
2019-05-07T23:39:36.811Z,13.57
2019-05-07T23:44:38.004Z,10.20
2019-05-07T23:49:39.096Z,11.80
2019-05-07T23:54:42.443Z,15.03
2019-05-07T23:59:43.177Z,10.50
